createdAt,value
2022-10-13T00:01:10.893Z,14.80
2022-10-13T00:03:40.046Z,12.82
2022-10-13T00:06:09.566Z,13.63
2022-10-13T00:08:38.161Z,11.57
2022-10-13T00:11:20.884Z,15.55
2022-10-13T00:13:49.619Z,14.25
2022-10-13T00:16:19.964Z,12.13
2022-10-13T00:18:48.437Z,14.23
2022-10-13T00:21:18.893Z,13.35
2022-10-13T00:23:48.264Z,17.98
2022-10-13T00:26:21.772Z,14.40
2022-10-13T00:28:53.089Z,14.27
2022-10-13T00:31:23.461Z,15.07
2022-10-13T00:33:51.845Z,16.02
2022-10-13T00:36:22.946Z,16.17
2022-10-13T00:38:51.203Z,15.48
2022-10-13T00:41:18.966Z,15.38
2022-10-13T00:44:00.053Z,13.18
2022-10-13T00:46:30.516Z,10.18
2022-10-13T00:49:14.265Z,20.13
2022-10-13T00:51:48.998Z,15.02
2022-10-13T00:54:21.696Z,13.15
2022-10-13T00:56:51.427Z,14.70
2022-10-13T00:59:23.315Z,11.40
2022-10-13T01:01:53.958Z,13.80
2022-10-13T01:04:25.571Z,13.57
2022-10-13T01:06:55.081Z,14.75
2022-10-13T01:09:23.670Z,12.40
2022-10-13T01:12:13.667Z,15.13
2022-10-13T01:15:03.091Z,11.02
2022-10-13T01:17:44.534Z,19.73
2022-10-13T01:20:26.774Z,13.35
2022-10-13T01:23:15.405Z,15.90
2022-10-13T01:26:01.195Z,15.13
2022-10-13T01:29:01.063Z,14.77
2022-10-13T01:31:46.626Z,15.57
2022-10-13T01:34:39.834Z,13.23
2022-10-13T01:37:22.410Z,12.68
2022-10-13T01:40:02.102Z,13.80
2022-10-13T01:42:49.650Z,12.82
2022-10-13T01:45:22.012Z,15.88
2022-10-13T01:47:51.672Z,13.20
2022-10-13T01:50:20.671Z,13.77
2022-10-13T01:52:50.248Z,15.70
2022-10-13T01:55:17.766Z,14.93
2022-10-13T01:57:45.543Z,15.65
2022-10-13T02:00:16.984Z,13.00
2022-10-13T02:03:11.841Z,13.82
2022-10-13T02:05:54.581Z,15.75
2022-10-13T02:08:29.885Z,14.13
2022-10-13T02:11:10.880Z,15.85
2022-10-13T02:13:47.419Z,13.50
2022-10-13T02:16:23.666Z,13.65
2022-10-13T02:18:52.578Z,13.30
2022-10-13T02:21:19.927Z,17.77
2022-10-13T02:23:47.418Z,11.75
2022-10-13T02:26:14.821Z,16.40
2022-10-13T02:28:42.708Z,12.43
2022-10-13T02:31:10.238Z,15.48
2022-10-13T02:33:37.690Z,15.48
2022-10-13T02:36:05.967Z,15.63
2022-10-13T02:38:33.499Z,14.50
2022-10-13T02:41:02.769Z,15.02
2022-10-13T02:43:30.137Z,13.85
2022-10-13T02:45:57.498Z,16.67
2022-10-13T02:48:25.012Z,11.93
2022-10-13T02:50:52.347Z,13.98
2022-10-13T02:53:22.339Z,13.43
2022-10-13T02:55:49.897Z,14.77
2022-10-13T02:58:17.216Z,16.45
2022-10-13T03:00:44.588Z,12.77
2022-10-13T03:03:12.557Z,13.70
2022-10-13T03:05:44.383Z,13.95
2022-10-13T03:08:11.724Z,16.27
2022-10-13T03:10:40.803Z,15.82
2022-10-13T03:13:08.154Z,17.65
2022-10-13T03:15:35.529Z,12.10
2022-10-13T03:18:06.463Z,13.20
2022-10-13T03:20:33.916Z,13.10
2022-10-13T03:23:01.298Z,12.85
2022-10-13T03:25:29.052Z,15.15
2022-10-13T03:27:56.425Z,13.73
2022-10-13T03:30:23.918Z,15.23
2022-10-13T03:32:51.262Z,14.23
2022-10-13T03:35:18.744Z,16.10
2022-10-13T03:37:46.178Z,15.77
2022-10-13T03:40:13.540Z,16.67
2022-10-13T03:42:40.842Z,12.48
2022-10-13T03:45:09.862Z,15.48
2022-10-13T03:47:37.595Z,16.27
2022-10-13T03:50:06.478Z,14.85
2022-10-13T03:52:33.760Z,12.45
2022-10-13T03:55:01.200Z,17.75
2022-10-13T03:57:28.705Z,21.50
2022-10-13T03:59:57.425Z,13.68
2022-10-13T04:02:27.552Z,16.20
2022-10-13T04:04:55.358Z,14.00
2022-10-13T04:07:22.833Z,19.83
2022-10-13T04:09:50.244Z,13.45
2022-10-13T04:12:20.881Z,16.67
2022-10-13T04:14:49.006Z,15.23
2022-10-13T04:17:16.343Z,10.82
2022-10-13T04:19:43.700Z,13.73
2022-10-13T04:22:11.016Z,16.00
2022-10-13T04:24:38.410Z,11.88
2022-10-13T04:27:05.728Z,12.98
2022-10-13T04:29:33.110Z,15.68
2022-10-13T04:32:00.436Z,13.00
2022-10-13T04:34:27.814Z,15.43
2022-10-13T04:36:55.302Z,12.65
2022-10-13T04:39:22.670Z,15.88
2022-10-13T04:41:50.783Z,13.20
2022-10-13T04:44:18.156Z,13.27
2022-10-13T04:46:45.599Z,15.77
2022-10-13T04:49:12.946Z,17.08
2022-10-13T04:51:42.665Z,10.25
2022-10-13T04:54:10.265Z,15.27
2022-10-13T04:56:37.611Z,13.20
2022-10-13T04:59:05.823Z,15.93
2022-10-13T05:01:35.821Z,12.73
2022-10-13T05:04:07.138Z,10.60
2022-10-13T05:06:53.625Z,14.15
2022-10-13T05:09:26.698Z,13.82
2022-10-13T05:11:55.307Z,13.00
2022-10-13T05:14:23.505Z,9.55
2022-10-13T05:16:50.870Z,12.05
2022-10-13T05:19:18.232Z,12.90
2022-10-13T05:21:45.637Z,12.95
2022-10-13T05:24:13.484Z,14.00
2022-10-13T05:26:41.572Z,12.63
2022-10-13T05:29:09.844Z,13.18
2022-10-13T05:31:37.209Z,16.73
2022-10-13T05:34:04.539Z,14.68
2022-10-13T05:36:34.915Z,11.48
2022-10-13T05:39:05.719Z,16.33
2022-10-13T05:41:33.866Z,17.42
2022-10-13T05:44:06.536Z,15.93
2022-10-13T05:46:35.642Z,15.90
2022-10-13T05:49:03.422Z,18.23
2022-10-13T05:51:32.792Z,14.68
2022-10-13T05:54:15.093Z,19.35
2022-10-13T05:56:48.163Z,12.73
2022-10-13T05:59:21.360Z,16.23
2022-10-13T06:01:52.158Z,20.67
2022-10-13T06:04:30.514Z,13.20
2022-10-13T06:06:57.914Z,14.68
2022-10-13T06:09:26.874Z,12.38
2022-10-13T06:11:54.182Z,13.68
2022-10-13T06:14:22.841Z,16.83
2022-10-13T06:16:51.674Z,15.30
2022-10-13T06:19:19.032Z,16.35
2022-10-13T06:21:46.584Z,12.32
2022-10-13T06:24:13.939Z,13.80
2022-10-13T06:26:41.760Z,14.68
2022-10-13T06:29:09.194Z,12.10
2022-10-13T06:31:36.582Z,16.63
2022-10-13T06:34:04.930Z,15.40
2022-10-13T06:36:33.171Z,15.82
2022-10-13T06:39:00.508Z,15.88
2022-10-13T06:41:27.985Z,17.38
2022-10-13T06:43:55.319Z,18.15
2022-10-13T06:46:22.667Z,15.52
2022-10-13T06:48:51.130Z,16.88
2022-10-13T06:51:21.164Z,24.70
2022-10-13T06:53:49.925Z,17.40
2022-10-13T06:56:23.396Z,16.10
2022-10-13T06:58:50.782Z,19.20
2022-10-13T07:01:18.194Z,19.50
2022-10-13T07:03:49.533Z,22.13
2022-10-13T07:06:19.620Z,13.50
2022-10-13T07:08:47.162Z,11.63
2022-10-13T07:11:16.737Z,14.18
2022-10-13T07:13:49.079Z,19.60
2022-10-13T07:16:19.006Z,17.83
2022-10-13T07:18:47.937Z,16.35
2022-10-13T07:21:18.027Z,16.00
2022-10-13T07:23:45.383Z,15.10
2022-10-13T07:26:16.163Z,16.73
2022-10-13T07:28:44.390Z,14.35
2022-10-13T07:31:17.785Z,14.30
2022-10-13T07:33:47.658Z,19.27
2022-10-13T07:38:45.094Z,19.20
2022-10-13T07:41:13.149Z,17.30
2022-10-13T07:43:41.173Z,14.50
2022-10-13T07:46:10.301Z,24.17
2022-10-13T07:48:37.659Z,16.00
2022-10-13T07:51:07.423Z,17.52
2022-10-13T07:53:35.554Z,16.40
2022-10-13T07:56:05.274Z,15.60
2022-10-13T07:58:33.677Z,19.30
2022-10-13T08:01:02.198Z,14.35
2022-10-13T08:03:31.870Z,13.18
2022-10-13T08:06:01.548Z,16.13
2022-10-13T08:08:29.277Z,14.07
2022-10-13T08:11:03.389Z,15.30
2022-10-13T08:13:32.802Z,13.85
2022-10-13T08:16:08.542Z,14.80
2022-10-13T08:18:35.883Z,16.55
2022-10-13T08:21:32.944Z,15.70
2022-10-13T08:23:52.061Z,15.80
2022-10-13T08:26:23.842Z,20.80
2022-10-13T08:31:42.062Z,20.20
2022-10-13T08:34:10.512Z,21.33
2022-10-13T08:36:38.892Z,17.08
2022-10-13T08:39:06.416Z,16.27
2022-10-13T08:41:39.029Z,15.45
2022-10-13T08:45:06.402Z,14.98
2022-10-13T08:47:23.819Z,16.10
2022-10-13T08:49:52.137Z,18.40
2022-10-13T08:52:25.241Z,14.67
2022-10-13T08:54:54.891Z,18.45
2022-10-13T08:59:52.601Z,19.08
2022-10-13T09:02:27.246Z,20.65
2022-10-13T09:04:55.724Z,17.38
2022-10-13T09:07:29.613Z,20.10
2022-10-13T09:09:57.947Z,14.40
2022-10-13T09:12:26.275Z,15.80
2022-10-13T09:15:05.267Z,18.45
2022-10-13T09:17:34.293Z,16.02
2022-10-13T09:20:07.024Z,15.05
2022-10-13T09:22:39.568Z,14.35
2022-10-13T09:25:06.941Z,17.00
2022-10-13T09:27:49.548Z,15.27
2022-10-13T09:30:34.465Z,12.63
2022-10-13T09:33:13.795Z,15.73
2022-10-13T09:35:42.805Z,16.58
2022-10-13T09:38:22.174Z,17.90
2022-10-13T09:41:10.003Z,22.33
2022-10-13T09:43:44.254Z,18.15
2022-10-13T09:46:52.498Z,22.60
2022-10-13T09:49:34.620Z,17.08
2022-10-13T09:52:26.473Z,20.05
2022-10-13T09:55:00.912Z,16.00
2022-10-13T09:57:34.306Z,16.80
2022-10-13T10:00:17.514Z,20.05
2022-10-13T10:02:56.549Z,22.63
2022-10-13T10:05:35.903Z,15.82
2022-10-13T10:08:33.630Z,17.30
2022-10-13T10:11:38.022Z,16.73
2022-10-13T10:14:23.876Z,16.33
2022-10-13T10:17:21.796Z,15.75
2022-10-13T10:20:09.773Z,25.58
2022-10-13T10:22:49.532Z,18.17
2022-10-13T10:25:35.485Z,21.95
2022-10-13T10:28:45.676Z,19.33
2022-10-13T10:31:47.355Z,20.35
2022-10-13T10:34:32.943Z,23.42
2022-10-13T10:37:25.625Z,19.02
2022-10-13T10:40:00.170Z,27.02
2022-10-13T10:42:39.527Z,18.00
2022-10-13T10:45:16.969Z,20.67
2022-10-13T10:47:47.869Z,20.48
2022-10-13T10:50:18.247Z,20.90
2022-10-13T10:53:09.199Z,21.45
2022-10-13T10:55:55.105Z,22.83
2022-10-13T10:58:34.582Z,21.95
2022-10-13T11:01:12.121Z,18.60
2022-10-13T11:04:35.584Z,18.92
2022-10-13T11:07:04.251Z,18.15
2022-10-13T11:09:43.570Z,26.27
2022-10-13T11:12:49.708Z,20.15
2022-10-13T11:15:28.705Z,18.35
2022-10-13T11:17:56.086Z,19.63
2022-10-13T11:20:26.626Z,21.08
2022-10-13T11:22:59.827Z,17.92
2022-10-13T11:25:48.827Z,21.67
2022-10-13T11:28:42.654Z,22.73
2022-10-13T11:31:14.739Z,20.25
2022-10-13T11:33:42.101Z,22.38
2022-10-13T11:36:32.440Z,25.10
2022-10-13T11:39:18.613Z,26.75
2022-10-13T11:41:51.760Z,19.42
2022-10-13T11:44:34.844Z,16.30
2022-10-13T11:47:17.243Z,21.40
2022-10-13T11:50:10.865Z,21.50
2022-10-13T11:52:47.740Z,19.75
2022-10-13T11:55:19.924Z,19.75
2022-10-13T11:57:48.260Z,21.67
2022-10-13T12:00:18.930Z,28.38
2022-10-13T12:02:53.205Z,24.38
2022-10-13T12:05:27.373Z,20.30
2022-10-13T12:07:58.945Z,20.48
2022-10-13T12:10:37.560Z,20.67
2022-10-13T12:13:21.873Z,18.02
2022-10-13T12:16:08.333Z,18.23
2022-10-13T12:18:40.900Z,16.23
2022-10-13T12:21:13.042Z,16.95
2022-10-13T12:23:41.017Z,20.50
2022-10-13T12:26:15.878Z,21.83
2022-10-13T12:28:46.899Z,15.73
2022-10-13T12:31:30.456Z,19.23
2022-10-13T12:34:03.324Z,17.17
2022-10-13T12:36:35.426Z,20.58
2022-10-13T12:39:12.175Z,14.38
2022-10-13T12:41:48.975Z,19.05
2022-10-13T12:44:28.310Z,17.33
2022-10-13T12:47:02.069Z,18.58
2022-10-13T12:49:33.578Z,14.85
2022-10-13T12:52:09.810Z,17.83
2022-10-13T12:54:49.939Z,16.63
2022-10-13T12:57:37.822Z,19.17
2022-10-13T13:00:26.529Z,18.05
2022-10-13T13:02:55.173Z,18.48
2022-10-13T13:05:40.687Z,21.20
2022-10-13T13:08:23.656Z,20.00
2022-10-13T13:10:55.145Z,18.20
2022-10-13T13:13:23.557Z,20.67
2022-10-13T13:15:51.043Z,19.30
2022-10-13T13:18:27.438Z,17.40
2022-10-13T13:20:55.094Z,18.20
2022-10-13T13:23:23.491Z,19.45
2022-10-13T13:26:13.295Z,24.67
2022-10-13T13:28:47.604Z,18.90
2022-10-13T13:31:17.125Z,18.52
2022-10-13T13:33:44.785Z,19.35
2022-10-13T13:36:18.714Z,19.25
2022-10-13T13:38:51.421Z,16.80
2022-10-13T13:41:19.255Z,19.10
2022-10-13T13:43:46.718Z,18.90
2022-10-13T13:46:20.897Z,17.83
2022-10-13T13:48:50.743Z,16.55
2022-10-13T13:51:18.290Z,19.95
2022-10-13T13:53:46.586Z,15.02
2022-10-13T13:56:15.998Z,17.33
2022-10-13T13:58:43.966Z,15.40
2022-10-13T14:01:13.369Z,18.48
2022-10-13T14:03:40.708Z,17.90
2022-10-13T14:06:09.258Z,17.15
2022-10-13T14:08:42.599Z,22.50
2022-10-13T14:11:10.689Z,20.33
2022-10-13T14:13:38.052Z,21.52
2022-10-13T14:16:05.648Z,18.83
2022-10-13T14:18:33.036Z,20.27
2022-10-13T14:21:00.405Z,19.08
2022-10-13T14:23:27.811Z,18.35
2022-10-13T14:25:55.354Z,20.80
2022-10-13T14:28:23.185Z,22.40
2022-10-13T14:30:50.665Z,20.08
2022-10-13T14:33:19.657Z,25.15
2022-10-13T14:35:47.173Z,22.70
2022-10-13T14:38:16.833Z,21.90
2022-10-13T14:40:44.998Z,21.08
2022-10-13T14:43:12.300Z,21.05
2022-10-13T14:45:39.620Z,22.20
2022-10-13T14:48:11.786Z,21.25
2022-10-13T14:50:39.257Z,23.85
2022-10-13T14:53:09.617Z,23.33
2022-10-13T14:55:37.167Z,22.48
2022-10-13T14:58:04.557Z,19.88
2022-10-13T15:00:31.930Z,29.38
2022-10-13T15:03:02.559Z,22.42
2022-10-13T15:05:30.531Z,21.08
2022-10-13T15:07:58.130Z,28.20
2022-10-13T15:10:25.519Z,24.73
2022-10-13T15:12:53.005Z,27.45
2022-10-13T15:15:20.651Z,24.85
2022-10-13T15:17:47.953Z,28.65
2022-10-13T15:20:15.303Z,27.52
2022-10-13T15:22:42.747Z,25.60
2022-10-13T15:25:11.893Z,24.35
2022-10-13T15:27:41.835Z,28.50
2022-10-13T15:30:12.368Z,30.00
2022-10-13T15:32:39.708Z,26.95
2022-10-13T15:35:07.451Z,30.80
2022-10-13T15:37:36.769Z,32.97
2022-10-13T15:40:04.640Z,36.50
2022-10-13T15:42:31.908Z,31.95
2022-10-13T15:45:15.556Z,33.50
2022-10-13T15:47:42.959Z,30.50
2022-10-13T15:50:10.571Z,30.25
2022-10-13T15:52:39.764Z,29.83
2022-10-13T15:55:09.349Z,27.65
2022-10-13T15:57:37.016Z,28.00
2022-10-13T16:00:06.284Z,29.60
2022-10-13T16:02:40.907Z,26.13
2022-10-13T16:05:12.897Z,29.83
2022-10-13T16:07:41.442Z,25.75
2022-10-13T16:10:10.659Z,31.50
2022-10-13T16:12:39.001Z,33.15
2022-10-13T16:15:10.762Z,28.60
2022-10-13T16:17:38.515Z,27.95
2022-10-13T16:20:06.472Z,28.10
2022-10-13T16:22:33.952Z,28.52
2022-10-13T16:25:06.304Z,29.48
2022-10-13T16:27:33.762Z,26.45
2022-10-13T16:30:01.217Z,26.17
2022-10-13T16:32:28.803Z,24.38
2022-10-13T16:34:59.738Z,27.98
2022-10-13T16:37:27.201Z,25.48
2022-10-13T16:39:54.560Z,26.35
2022-10-13T16:42:22.086Z,32.67
2022-10-13T16:44:49.389Z,31.50
2022-10-13T16:47:18.622Z,26.73
2022-10-13T16:49:47.091Z,24.17
2022-10-13T16:52:15.444Z,28.77
2022-10-13T16:54:45.998Z,27.77
2022-10-13T16:57:13.379Z,29.95
2022-10-13T16:59:41.081Z,36.33
2022-10-13T17:02:14.748Z,27.80
2022-10-13T17:04:43.127Z,26.05
2022-10-13T17:07:10.563Z,23.48
2022-10-13T17:09:37.852Z,25.10
2022-10-13T17:12:05.859Z,30.08
2022-10-13T17:14:33.207Z,29.15
2022-10-13T17:17:00.617Z,34.38
2022-10-13T17:19:28.189Z,29.98
2022-10-13T17:21:56.677Z,24.83
2022-10-13T17:24:24.064Z,26.50
2022-10-13T17:26:51.476Z,25.45
2022-10-13T17:29:18.956Z,31.02
2022-10-13T17:31:46.432Z,32.03
2022-10-13T17:34:13.840Z,26.35
2022-10-13T17:36:41.272Z,25.98
2022-10-13T17:39:11.555Z,25.38
2022-10-13T17:41:40.978Z,26.80
2022-10-13T17:44:08.376Z,28.60
2022-10-13T17:46:37.871Z,27.85
2022-10-13T17:49:10.975Z,24.52
2022-10-13T17:51:40.264Z,28.48
2022-10-13T17:54:12.942Z,34.00
2022-10-13T17:56:41.955Z,27.80
2022-10-13T17:59:10.213Z,25.90
2022-10-13T18:01:37.931Z,26.05
2022-10-13T18:04:08.495Z,30.67
2022-10-13T18:06:40.454Z,31.40
2022-10-13T18:09:10.426Z,28.90
2022-10-13T18:11:38.825Z,26.58
2022-10-13T18:14:06.745Z,29.80
2022-10-13T18:16:34.636Z,26.40
2022-10-13T18:19:02.583Z,27.30
2022-10-13T18:21:30.618Z,28.20
2022-10-13T18:24:00.796Z,29.92
2022-10-13T18:26:36.645Z,30.25
2022-10-13T18:29:06.271Z,26.48
2022-10-13T18:31:38.556Z,30.33
2022-10-13T18:34:08.737Z,26.52
2022-10-13T18:36:42.291Z,27.02
2022-10-13T18:39:16.225Z,28.73
2022-10-13T18:41:46.614Z,30.15
2022-10-13T18:44:14.761Z,28.90
2022-10-13T18:46:44.075Z,30.20
2022-10-13T18:49:13.432Z,28.02
2022-10-13T18:51:42.619Z,30.53
2022-10-13T18:54:10.291Z,33.78
2022-10-13T18:56:37.772Z,27.30
2022-10-13T18:59:08.501Z,26.75
2022-10-13T19:01:38.476Z,24.63
2022-10-13T19:04:06.112Z,30.30
2022-10-13T19:06:33.711Z,30.23
2022-10-13T19:09:07.417Z,30.23
2022-10-13T19:11:37.371Z,31.77
2022-10-13T19:14:06.969Z,33.75
2022-10-13T19:16:37.164Z,30.60
2022-10-13T19:19:07.033Z,27.42
2022-10-13T19:21:34.918Z,32.90
2022-10-13T19:24:02.271Z,33.63
2022-10-13T19:26:32.679Z,33.65
2022-10-13T19:29:04.558Z,29.45
2022-10-13T19:31:33.196Z,34.85
2022-10-13T19:34:03.390Z,34.43
2022-10-13T19:36:34.160Z,30.63
2022-10-13T19:39:04.715Z,27.92
2022-10-13T19:41:33.386Z,26.95
2022-10-13T19:44:01.184Z,33.22
2022-10-13T19:46:40.169Z,29.35
2022-10-13T19:49:08.373Z,32.85
2022-10-13T19:51:37.919Z,28.30
2022-10-13T19:54:05.487Z,29.25
2022-10-13T19:56:33.959Z,26.20
2022-10-13T19:59:04.406Z,28.83
2022-10-13T20:01:39.804Z,33.33
2022-10-13T20:04:10.225Z,32.20
2022-10-13T20:06:39.229Z,28.30
2022-10-13T20:09:06.862Z,30.80
2022-10-13T20:11:34.482Z,29.95
2022-10-13T20:14:01.826Z,39.17
2022-10-13T20:16:29.407Z,33.45
2022-10-13T20:18:59.775Z,26.95
2022-10-13T20:21:28.063Z,30.48
2022-10-13T20:23:56.227Z,34.33
2022-10-13T20:26:24.356Z,31.63
2022-10-13T20:28:53.176Z,32.28
2022-10-13T20:31:22.187Z,28.10
2022-10-13T20:33:55.130Z,32.88
2022-10-13T20:36:25.316Z,30.05
2022-10-13T20:38:52.658Z,31.30
2022-10-13T20:41:28.779Z,32.40
2022-10-13T20:43:58.122Z,31.23
2022-10-13T20:46:26.585Z,30.77
2022-10-13T20:49:11.566Z,31.77
2022-10-13T20:51:40.078Z,30.27
2022-10-13T20:54:07.913Z,32.47
2022-10-13T20:56:35.809Z,31.50
2022-10-13T20:59:09.279Z,35.22
2022-10-13T21:01:37.123Z,29.52
2022-10-13T21:04:14.938Z,32.83
2022-10-13T21:06:53.314Z,28.15
2022-10-13T21:09:31.495Z,32.35
2022-10-13T21:12:09.844Z,31.65
2022-10-13T21:14:47.659Z,31.17
2022-10-13T21:17:25.864Z,31.67
2022-10-13T21:20:04.356Z,34.13
2022-10-13T21:22:44.006Z,33.33
2022-10-13T21:25:22.050Z,29.55
2022-10-13T21:28:02.613Z,37.38
2022-10-13T21:30:40.058Z,29.80
2022-10-13T21:33:18.365Z,29.65
2022-10-13T21:35:57.199Z,30.63
2022-10-13T21:38:35.892Z,32.65
2022-10-13T21:41:15.100Z,43.22
2022-10-13T21:43:53.318Z,33.03
2022-10-13T21:46:34.294Z,31.98
2022-10-13T21:49:12.409Z,27.63
2022-10-13T21:51:52.609Z,33.67
2022-10-13T21:54:30.533Z,30.92
2022-10-13T21:57:08.561Z,29.98
2022-10-13T21:59:47.662Z,29.90
2022-10-13T22:02:25.023Z,29.80
2022-10-13T22:05:03.601Z,32.88
2022-10-13T22:07:41.449Z,30.23
2022-10-13T22:10:19.713Z,32.05
2022-10-13T22:12:57.969Z,32.58
2022-10-13T22:15:36.150Z,29.63
2022-10-13T22:18:15.041Z,28.52
2022-10-13T22:20:52.379Z,26.25
2022-10-13T22:23:29.410Z,28.95
2022-10-13T22:26:08.374Z,29.38
2022-10-13T22:28:48.549Z,32.53
2022-10-13T22:31:27.995Z,31.55
2022-10-13T22:34:06.731Z,27.60
2022-10-13T22:36:45.609Z,27.92
2022-10-13T22:39:23.455Z,33.00
2022-10-13T22:42:04.490Z,28.85
2022-10-13T22:44:44.881Z,28.20
2022-10-13T22:47:22.916Z,29.05
2022-10-13T22:50:00.693Z,29.77
2022-10-13T22:52:38.949Z,31.98
2022-10-13T22:55:17.103Z,26.80
2022-10-13T22:57:56.745Z,27.52
2022-10-13T23:00:39.160Z,23.58
2022-10-13T23:03:16.864Z,26.75
2022-10-13T23:06:00.627Z,28.60
2022-10-13T23:08:39.572Z,33.55
2022-10-13T23:11:18.273Z,26.92
2022-10-13T23:13:55.852Z,27.35
2022-10-13T23:16:36.912Z,30.20
2022-10-13T23:19:15.318Z,27.73
2022-10-13T23:21:53.548Z,29.17
2022-10-13T23:24:31.771Z,36.03
2022-10-13T23:27:09.929Z,32.72
2022-10-13T23:29:51.408Z,30.38
2022-10-13T23:32:29.661Z,27.05
2022-10-13T23:35:08.243Z,32.90
2022-10-13T23:37:45.962Z,27.80
2022-10-13T23:40:25.402Z,29.63
2022-10-13T23:43:03.958Z,31.00
2022-10-13T23:45:43.852Z,27.85
2022-10-13T23:48:25.235Z,30.30
2022-10-13T23:51:10.128Z,34.50
2022-10-13T23:53:48.093Z,28.88
2022-10-13T23:56:29.138Z,33.10
2022-10-13T23:59:07.777Z,29.27
